sensor_id;sensor_type;location;lat;lon;timestamp;P1;durP1;ratioP1;P2;durP2;ratioP2
67378;SDS011;54262;44.642;-0.974;2023-08-30T00:00:42;5.28;;;4.75;;
67378;SDS011;54262;44.642;-0.974;2023-08-30T00:03:10;5.47;;;4.80;;
67378;SDS011;54262;44.642;-0.974;2023-08-30T00:05:40;6.97;;;5.20;;
67378;SDS011;54262;44.642;-0.974;2023-08-30T00:08:07;5.95;;;4.40;;
67378;SDS011;54262;44.642;-0.974;2023-08-30T00:10:33;4.85;;;4.50;;
67378;SDS011;54262;44.642;-0.974;2023-08-30T00:12:59;5.10;;;4.65;;
67378;SDS011;54262;44.642;-0.974;2023-08-30T00:15:24;7.55;;;4.63;;
67378;SDS011;54262;44.642;-0.974;2023-08-30T00:17:50;10.43;;;5.30;;
67378;SDS011;54262;44.642;-0.974;2023-08-30T00:20:19;5.45;;;5.10;;
67378;SDS011;54262;44.642;-0.974;2023-08-30T00:22:45;7.40;;;4.78;;
67378;SDS011;54262;44.642;-0.974;2023-08-30T00:25:13;5.43;;;4.93;;
67378;SDS011;54262;44.642;-0.974;2023-08-30T00:27:39;4.82;;;4.60;;
67378;SDS011;54262;44.642;-0.974;2023-08-30T00:30:05;5.57;;;5.20;;
67378;SDS011;54262;44.642;-0.974;2023-08-30T00:32:33;4.65;;;4.35;;
67378;SDS011;54262;44.642;-0.974;2023-08-30T00:34:59;5.10;;;4.70;;
67378;SDS011;54262;44.642;-0.974;2023-08-30T00:37:24;4.97;;;4.68;;
67378;SDS011;54262;44.642;-0.974;2023-08-30T00:39:50;6.53;;;4.70;;
67378;SDS011;54262;44.642;-0.974;2023-08-30T00:42:15;7.15;;;5.20;;
67378;SDS011;54262;44.642;-0.974;2023-08-30T00:44:41;4.88;;;4.55;;
67378;SDS011;54262;44.642;-0.974;2023-08-30T00:47:07;5.00;;;4.70;;
67378;SDS011;54262;44.642;-0.974;2023-08-30T00:49:33;5.07;;;4.53;;
67378;SDS011;54262;44.642;-0.974;2023-08-30T00:52:00;4.90;;;4.65;;
67378;SDS011;54262;44.642;-0.974;2023-08-30T00:54:28;5.32;;;4.90;;
67378;SDS011;54262;44.642;-0.974;2023-08-30T00:56:54;4.80;;;4.55;;
67378;SDS011;54262;44.642;-0.974;2023-08-30T00:59:20;6.05;;;5.18;;
67378;SDS011;54262;44.642;-0.974;2023-08-30T01:01:49;4.75;;;4.45;;
67378;SDS011;54262;44.642;-0.974;2023-08-30T01:04:18;4.97;;;4.68;;
67378;SDS011;54262;44.642;-0.974;2023-08-30T01:06:44;4.88;;;4.57;;
67378;SDS011;54262;44.642;-0.974;2023-08-30T01:09:10;4.82;;;4.45;;
67378;SDS011;54262;44.642;-0.974;2023-08-30T01:11:45;7.97;;;4.53;;
67378;SDS011;54262;44.642;-0.974;2023-08-30T01:14:19;5.00;;;4.70;;
67378;SDS011;54262;44.642;-0.974;2023-08-30T01:16:47;5.40;;;4.68;;
67378;SDS011;54262;44.642;-0.974;2023-08-30T01:24:25;4.85;;;4.65;;
67378;SDS011;54262;44.642;-0.974;2023-08-30T01:27:06;4.93;;;4.63;;
67378;SDS011;54262;44.642;-0.974;2023-08-30T01:29:34;5.75;;;5.20;;
67378;SDS011;54262;44.642;-0.974;2023-08-30T01:32:03;4.75;;;4.55;;
67378;SDS011;54262;44.642;-0.974;2023-08-30T01:34:30;4.93;;;4.53;;
67378;SDS011;54262;44.642;-0.974;2023-08-30T01:36:57;6.53;;;4.18;;
67378;SDS011;54262;44.642;-0.974;2023-08-30T01:39:23;4.90;;;4.43;;
67378;SDS011;54262;44.642;-0.974;2023-08-30T01:41:50;4.93;;;4.53;;
67378;SDS011;54262;44.642;-0.974;2023-08-30T01:44:20;4.55;;;4.25;;
67378;SDS011;54262;44.642;-0.974;2023-08-30T01:46:46;4.60;;;4.40;;
67378;SDS011;54262;44.642;-0.974;2023-08-30T01:49:13;6.47;;;4.57;;
67378;SDS011;54262;44.642;-0.974;2023-08-30T01:51:39;5.30;;;4.82;;
67378;SDS011;54262;44.642;-0.974;2023-08-30T01:54:05;4.32;;;4.03;;
67378;SDS011;54262;44.642;-0.974;2023-08-30T01:56:36;5.13;;;4.78;;
67378;SDS011;54262;44.642;-0.974;2023-08-30T01:59:02;5.30;;;4.85;;
67378;SDS011;54262;44.642;-0.974;2023-08-30T02:01:27;5.65;;;5.25;;
67378;SDS011;54262;44.642;-0.974;2023-08-30T02:03:56;5.82;;;5.20;;
67378;SDS011;54262;44.642;-0.974;2023-08-30T02:06:24;5.35;;;4.95;;
67378;SDS011;54262;44.642;-0.974;2023-08-30T02:08:58;5.53;;;5.03;;
67378;SDS011;54262;44.642;-0.974;2023-08-30T02:11:54;5.35;;;4.85;;
67378;SDS011;54262;44.642;-0.974;2023-08-30T02:14:21;5.28;;;4.70;;
67378;SDS011;54262;44.642;-0.974;2023-08-30T02:16:50;4.32;;;4.03;;
67378;SDS011;54262;44.642;-0.974;2023-08-30T02:19:17;5.28;;;4.97;;
67378;SDS011;54262;44.642;-0.974;2023-08-30T02:21:46;6.03;;;5.53;;
67378;SDS011;54262;44.642;-0.974;2023-08-30T02:24:12;5.03;;;4.72;;
67378;SDS011;54262;44.642;-0.974;2023-08-30T02:26:38;5.47;;;5.13;;
67378;SDS011;54262;44.642;-0.974;2023-08-30T02:29:04;5.80;;;5.28;;
67378;SDS011;54262;44.642;-0.974;2023-08-30T02:31:29;5.15;;;4.85;;
67378;SDS011;54262;44.642;-0.974;2023-08-30T02:33:55;5.53;;;5.13;;
67378;SDS011;54262;44.642;-0.974;2023-08-30T02:36:21;5.50;;;5.00;;
67378;SDS011;54262;44.642;-0.974;2023-08-30T02:38:46;5.53;;;5.20;;
67378;SDS011;54262;44.642;-0.974;2023-08-30T02:41:12;5.20;;;4.72;;
67378;SDS011;54262;44.642;-0.974;2023-08-30T02:43:38;5.25;;;4.75;;
67378;SDS011;54262;44.642;-0.974;2023-08-30T02:46:03;11.90;;;5.55;;
67378;SDS011;54262;44.642;-0.974;2023-08-30T02:48:30;6.07;;;5.57;;
67378;SDS011;54262;44.642;-0.974;2023-08-30T02:50:59;5.15;;;4.85;;
67378;SDS011;54262;44.642;-0.974;2023-08-30T02:53:25;5.30;;;5.00;;
67378;SDS011;54262;44.642;-0.974;2023-08-30T02:55:50;5.20;;;4.90;;
67378;SDS011;54262;44.642;-0.974;2023-08-30T02:58:16;6.15;;;5.57;;
67378;SDS011;54262;44.642;-0.974;2023-08-30T03:00:42;5.57;;;5.15;;
67378;SDS011;54262;44.642;-0.974;2023-08-30T03:03:07;5.05;;;4.70;;
67378;SDS011;54262;44.642;-0.974;2023-08-30T03:05:35;5.28;;;4.88;;
67378;SDS011;54262;44.642;-0.974;2023-08-30T03:08:03;3.53;;;3.40;;
67378;SDS011;54262;44.642;-0.974;2023-08-30T03:10:29;4.20;;;4.00;;
67378;SDS011;54262;44.642;-0.974;2023-08-30T03:12:55;4.72;;;4.43;;
67378;SDS011;54262;44.642;-0.974;2023-08-30T03:15:20;4.22;;;3.92;;
67378;SDS011;54262;44.642;-0.974;2023-08-30T03:17:46;5.03;;;4.63;;
67378;SDS011;54262;44.642;-0.974;2023-08-30T03:20:11;5.45;;;5.15;;
67378;SDS011;54262;44.642;-0.974;2023-08-30T03:22:37;4.90;;;4.53;;
67378;SDS011;54262;44.642;-0.974;2023-08-30T03:25:03;5.00;;;4.70;;
67378;SDS011;54262;44.642;-0.974;2023-08-30T03:27:29;5.75;;;5.32;;
67378;SDS011;54262;44.642;-0.974;2023-08-30T03:29:55;6.43;;;5.20;;
67378;SDS011;54262;44.642;-0.974;2023-08-30T03:32:21;6.55;;;5.97;;
67378;SDS011;54262;44.642;-0.974;2023-08-30T03:34:47;5.18;;;4.82;;
67378;SDS011;54262;44.642;-0.974;2023-08-30T03:37:14;5.53;;;5.22;;
67378;SDS011;54262;44.642;-0.974;2023-08-30T03:39:40;5.50;;;4.97;;
67378;SDS011;54262;44.642;-0.974;2023-08-30T03:42:06;8.20;;;5.60;;
67378;SDS011;54262;44.642;-0.974;2023-08-30T03:44:32;5.90;;;5.50;;
67378;SDS011;54262;44.642;-0.974;2023-08-30T03:46:57;5.13;;;4.82;;
67378;SDS011;54262;44.642;-0.974;2023-08-30T03:49:23;5.60;;;5.18;;
67378;SDS011;54262;44.642;-0.974;2023-08-30T03:51:49;6.00;;;5.47;;
67378;SDS011;54262;44.642;-0.974;2023-08-30T03:54:15;9.77;;;5.28;;
67378;SDS011;54262;44.642;-0.974;2023-08-30T03:56:44;5.90;;;5.47;;
67378;SDS011;54262;44.642;-0.974;2023-08-30T03:59:10;5.88;;;5.18;;
67378;SDS011;54262;44.642;-0.974;2023-08-30T04:01:38;5.50;;;5.20;;
67378;SDS011;54262;44.642;-0.974;2023-08-30T04:04:04;6.68;;;6.07;;
67378;SDS011;54262;44.642;-0.974;2023-08-30T04:06:32;6.00;;;5.10;;
67378;SDS011;54262;44.642;-0.974;2023-08-30T04:09:00;6.68;;;5.97;;
67378;SDS011;54262;44.642;-0.974;2023-08-30T04:11:26;6.30;;;5.80;;
67378;SDS011;54262;44.642;-0.974;2023-08-30T04:13:51;5.32;;;5.03;;
67378;SDS011;54262;44.642;-0.974;2023-08-30T04:16:17;5.85;;;5.30;;
67378;SDS011;54262;44.642;-0.974;2023-08-30T04:18:43;4.57;;;4.28;;
67378;SDS011;54262;44.642;-0.974;2023-08-30T04:21:12;5.70;;;5.03;;
67378;SDS011;54262;44.642;-0.974;2023-08-30T04:23:37;6.05;;;5.55;;
67378;SDS011;54262;44.642;-0.974;2023-08-30T04:26:03;5.40;;;5.10;;
67378;SDS011;54262;44.642;-0.974;2023-08-30T04:28:29;5.22;;;4.93;;
67378;SDS011;54262;44.642;-0.974;2023-08-30T04:30:55;5.45;;;5.15;;
67378;SDS011;54262;44.642;-0.974;2023-08-30T04:33:21;6.30;;;5.95;;
67378;SDS011;54262;44.642;-0.974;2023-08-30T04:35:51;5.78;;;5.38;;
67378;SDS011;54262;44.642;-0.974;2023-08-30T04:38:17;6.22;;;5.93;;
67378;SDS011;54262;44.642;-0.974;2023-08-30T04:40:43;5.85;;;5.45;;
67378;SDS011;54262;44.642;-0.974;2023-08-30T04:43:08;6.55;;;5.95;;
67378;SDS011;54262;44.642;-0.974;2023-08-30T04:45:34;6.60;;;5.97;;
67378;SDS011;54262;44.642;-0.974;2023-08-30T04:48:00;6.57;;;5.97;;
67378;SDS011;54262;44.642;-0.974;2023-08-30T04:50:26;7.10;;;6.43;;
67378;SDS011;54262;44.642;-0.974;2023-08-30T04:52:52;7.07;;;6.38;;
67378;SDS011;54262;44.642;-0.974;2023-08-30T04:55:17;6.32;;;5.90;;
67378;SDS011;54262;44.642;-0.974;2023-08-30T04:57:43;6.57;;;6.18;;
67378;SDS011;54262;44.642;-0.974;2023-08-30T05:00:13;7.05;;;6.65;;
67378;SDS011;54262;44.642;-0.974;2023-08-30T05:02:39;6.78;;;6.18;;
67378;SDS011;54262;44.642;-0.974;2023-08-30T05:05:05;6.93;;;6.43;;
67378;SDS011;54262;44.642;-0.974;2023-08-30T05:07:34;7.97;;;6.20;;
67378;SDS011;54262;44.642;-0.974;2023-08-30T05:10:03;6.32;;;5.93;;
67378;SDS011;54262;44.642;-0.974;2023-08-30T05:12:29;6.90;;;6.40;;
67378;SDS011;54262;44.642;-0.974;2023-08-30T05:14:57;6.25;;;5.80;;
67378;SDS011;54262;44.642;-0.974;2023-08-30T05:17:23;7.72;;;6.22;;
67378;SDS011;54262;44.642;-0.974;2023-08-30T05:19:49;5.72;;;5.45;;
67378;SDS011;54262;44.642;-0.974;2023-08-30T05:22:14;6.50;;;6.10;;
67378;SDS011;54262;44.642;-0.974;2023-08-30T05:24:40;5.95;;;5.55;;
67378;SDS011;54262;44.642;-0.974;2023-08-30T05:27:06;5.95;;;5.65;;
67378;SDS011;54262;44.642;-0.974;2023-08-30T05:29:34;6.68;;;6.15;;
67378;SDS011;54262;44.642;-0.974;2023-08-30T05:32:00;5.78;;;5.47;;
67378;SDS011;54262;44.642;-0.974;2023-08-30T05:34:26;9.57;;;9.07;;
67378;SDS011;54262;44.642;-0.974;2023-08-30T05:36:53;5.47;;;5.07;;
67378;SDS011;54262;44.642;-0.974;2023-08-30T05:39:18;6.80;;;6.40;;
67378;SDS011;54262;44.642;-0.974;2023-08-30T05:41:44;6.68;;;6.28;;
67378;SDS011;54262;44.642;-0.974;2023-08-30T05:44:10;6.82;;;6.22;;
67378;SDS011;54262;44.642;-0.974;2023-08-30T05:46:35;7.28;;;6.53;;
67378;SDS011;54262;44.642;-0.974;2023-08-30T05:49:01;7.45;;;7.05;;
67378;SDS011;54262;44.642;-0.974;2023-08-30T05:51:28;7.22;;;6.72;;
67378;SDS011;54262;44.642;-0.974;2023-08-30T05:53:54;5.97;;;5.53;;
67378;SDS011;54262;44.642;-0.974;2023-08-30T05:56:19;6.53;;;6.03;;
67378;SDS011;54262;44.642;-0.974;2023-08-30T05:58:45;6.85;;;6.45;;
67378;SDS011;54262;44.642;-0.974;2023-08-30T06:01:11;6.28;;;5.78;;
67378;SDS011;54262;44.642;-0.974;2023-08-30T06:03:37;5.88;;;5.43;;
67378;SDS011;54262;44.642;-0.974;2023-08-30T06:06:02;7.10;;;6.45;;
67378;SDS011;54262;44.642;-0.974;2023-08-30T06:08:30;8.77;;;7.10;;
67378;SDS011;54262;44.642;-0.974;2023-08-30T06:10:59;14.68;;;7.15;;
67378;SDS011;54262;44.642;-0.974;2023-08-30T06:13:25;7.80;;;6.63;;
67378;SDS011;54262;44.642;-0.974;2023-08-30T06:15:51;7.25;;;6.70;;
67378;SDS011;54262;44.642;-0.974;2023-08-30T06:18:17;10.73;;;6.25;;
67378;SDS011;54262;44.642;-0.974;2023-08-30T06:20:43;8.13;;;7.32;;
67378;SDS011;54262;44.642;-0.974;2023-08-30T06:23:08;7.32;;;6.72;;
67378;SDS011;54262;44.642;-0.974;2023-08-30T06:25:35;7.30;;;6.80;;
67378;SDS011;54262;44.642;-0.974;2023-08-30T06:28:00;7.18;;;6.45;;
67378;SDS011;54262;44.642;-0.974;2023-08-30T06:30:28;3.47;;;3.38;;
67378;SDS011;54262;44.642;-0.974;2023-08-30T06:32:57;5.60;;;5.30;;
67378;SDS011;54262;44.642;-0.974;2023-08-30T06:35:23;7.60;;;7.15;;
67378;SDS011;54262;44.642;-0.974;2023-08-30T06:37:49;9.80;;;7.47;;
67378;SDS011;54262;44.642;-0.974;2023-08-30T06:40:15;10.93;;;9.18;;
67378;SDS011;54262;44.642;-0.974;2023-08-30T06:42:41;10.90;;;8.70;;
67378;SDS011;54262;44.642;-0.974;2023-08-30T06:45:07;4.43;;;4.18;;
67378;SDS011;54262;44.642;-0.974;2023-08-30T06:47:33;7.75;;;7.25;;
67378;SDS011;54262;44.642;-0.974;2023-08-30T06:49:59;7.45;;;6.85;;
67378;SDS011;54262;44.642;-0.974;2023-08-30T06:52:25;8.90;;;8.02;;
67378;SDS011;54262;44.642;-0.974;2023-08-30T06:54:51;11.65;;;9.18;;
67378;SDS011;54262;44.642;-0.974;2023-08-30T06:57:17;9.57;;;8.75;;
67378;SDS011;54262;44.642;-0.974;2023-08-30T06:59:42;15.85;;;9.68;;
67378;SDS011;54262;44.642;-0.974;2023-08-30T07:02:08;5.72;;;5.43;;
67378;SDS011;54262;44.642;-0.974;2023-08-30T07:04:33;18.98;;;9.13;;
67378;SDS011;54262;44.642;-0.974;2023-08-30T07:06:59;9.90;;;8.38;;
67378;SDS011;54262;44.642;-0.974;2023-08-30T07:09:30;9.43;;;8.60;;
67378;SDS011;54262;44.642;-0.974;2023-08-30T07:11:58;13.93;;;7.72;;
67378;SDS011;54262;44.642;-0.974;2023-08-30T07:14:24;8.02;;;7.47;;
67378;SDS011;54262;44.642;-0.974;2023-08-30T07:16:51;6.97;;;6.40;;
67378;SDS011;54262;44.642;-0.974;2023-08-30T07:19:16;4.65;;;4.25;;
67378;SDS011;54262;44.642;-0.974;2023-08-30T07:21:43;6.97;;;6.45;;
67378;SDS011;54262;44.642;-0.974;2023-08-30T07:24:09;8.18;;;5.68;;
67378;SDS011;54262;44.642;-0.974;2023-08-30T07:26:35;9.13;;;6.85;;
67378;SDS011;54262;44.642;-0.974;2023-08-30T07:29:01;6.13;;;5.78;;
67378;SDS011;54262;44.642;-0.974;2023-08-30T07:31:29;5.40;;;5.03;;
67378;SDS011;54262;44.642;-0.974;2023-08-30T07:33:56;6.20;;;5.57;;
67378;SDS011;54262;44.642;-0.974;2023-08-30T07:36:23;4.78;;;4.53;;
67378;SDS011;54262;44.642;-0.974;2023-08-30T07:38:48;6.43;;;4.55;;
67378;SDS011;54262;44.642;-0.974;2023-08-30T07:41:14;6.55;;;5.03;;
67378;SDS011;54262;44.642;-0.974;2023-08-30T07:43:40;5.30;;;4.80;;
67378;SDS011;54262;44.642;-0.974;2023-08-30T07:46:05;4.90;;;4.60;;
67378;SDS011;54262;44.642;-0.974;2023-08-30T07:48:31;5.93;;;5.28;;
67378;SDS011;54262;44.642;-0.974;2023-08-30T07:50:56;5.10;;;4.30;;
67378;SDS011;54262;44.642;-0.974;2023-08-30T07:53:22;6.65;;;4.65;;
67378;SDS011;54262;44.642;-0.974;2023-08-30T07:55:51;5.78;;;4.28;;
67378;SDS011;54262;44.642;-0.974;2023-08-30T07:58:16;4.55;;;4.25;;
67378;SDS011;54262;44.642;-0.974;2023-08-30T08:00:42;3.97;;;3.70;;
67378;SDS011;54262;44.642;-0.974;2023-08-30T08:03:08;8.15;;;3.90;;
67378;SDS011;54262;44.642;-0.974;2023-08-30T08:05:35;4.93;;;3.92;;
67378;SDS011;54262;44.642;-0.974;2023-08-30T08:08:01;10.52;;;3.63;;
67378;SDS011;54262;44.642;-0.974;2023-08-30T08:10:30;3.58;;;3.33;;
67378;SDS011;54262;44.642;-0.974;2023-08-30T08:13:02;3.33;;;3.15;;
67378;SDS011;54262;44.642;-0.974;2023-08-30T08:15:29;3.47;;;3.28;;
67378;SDS011;54262;44.642;-0.974;2023-08-30T08:17:58;4.88;;;3.17;;
67378;SDS011;54262;44.642;-0.974;2023-08-30T08:20:24;3.22;;;3.03;;
67378;SDS011;54262;44.642;-0.974;2023-08-30T08:22:51;4.03;;;3.15;;
67378;SDS011;54262;44.642;-0.974;2023-08-30T08:25:19;3.38;;;3.17;;
67378;SDS011;54262;44.642;-0.974;2023-08-30T08:27:50;3.22;;;2.88;;
67378;SDS011;54262;44.642;-0.974;2023-08-30T08:30:18;4.72;;;3.15;;
67378;SDS011;54262;44.642;-0.974;2023-08-30T08:32:45;3.28;;;3.08;;
67378;SDS011;54262;44.642;-0.974;2023-08-30T08:35:12;5.05;;;2.85;;
67378;SDS011;54262;44.642;-0.974;2023-08-30T08:37:38;4.82;;;3.30;;
67378;SDS011;54262;44.642;-0.974;2023-08-30T08:40:04;2.90;;;2.70;;
67378;SDS011;54262;44.642;-0.974;2023-08-30T08:42:33;2.70;;;2.60;;
67378;SDS011;54262;44.642;-0.974;2023-08-30T08:45:00;2.50;;;2.40;;
67378;SDS011;54262;44.642;-0.974;2023-08-30T08:47:29;2.97;;;2.78;;
67378;SDS011;54262;44.642;-0.974;2023-08-30T08:49:56;3.03;;;2.83;;
67378;SDS011;54262;44.642;-0.974;2023-08-30T08:52:25;2.60;;;2.40;;
67378;SDS011;54262;44.642;-0.974;2023-08-30T08:54:51;2.42;;;2.22;;
67378;SDS011;54262;44.642;-0.974;2023-08-30T08:57:17;2.50;;;2.40;;
67378;SDS011;54262;44.642;-0.974;2023-08-30T08:59:44;2.78;;;2.40;;
67378;SDS011;54262;44.642;-0.974;2023-08-30T09:02:11;5.63;;;2.50;;
67378;SDS011;54262;44.642;-0.974;2023-08-30T09:04:39;2.95;;;2.50;;
67378;SDS011;54262;44.642;-0.974;2023-08-30T09:07:05;2.70;;;2.50;;
67378;SDS011;54262;44.642;-0.974;2023-08-30T09:09:32;2.67;;;2.47;;
67378;SDS011;54262;44.642;-0.974;2023-08-30T09:12:00;2.75;;;2.60;;
67378;SDS011;54262;44.642;-0.974;2023-08-30T09:14:28;3.53;;;3.33;;
67378;SDS011;54262;44.642;-0.974;2023-08-30T09:17:01;3.95;;;3.65;;
67378;SDS011;54262;44.642;-0.974;2023-08-30T09:19:27;3.20;;;3.03;;
67378;SDS011;54262;44.642;-0.974;2023-08-30T09:21:56;3.50;;;3.13;;
67378;SDS011;54262;44.642;-0.974;2023-08-30T09:24:23;3.10;;;3.00;;
67378;SDS011;54262;44.642;-0.974;2023-08-30T09:26:50;3.40;;;3.20;;
67378;SDS011;54262;44.642;-0.974;2023-08-30T09:29:19;3.95;;;3.15;;
67378;SDS011;54262;44.642;-0.974;2023-08-30T09:31:52;2.53;;;2.42;;
67378;SDS011;54262;44.642;-0.974;2023-08-30T09:34:23;3.60;;;3.38;;
67378;SDS011;54262;44.642;-0.974;2023-08-30T09:36:53;2.55;;;2.45;;
67378;SDS011;54262;44.642;-0.974;2023-08-30T09:39:19;2.20;;;1.92;;
67378;SDS011;54262;44.642;-0.974;2023-08-30T09:41:49;1.95;;;1.75;;
67378;SDS011;54262;44.642;-0.974;2023-08-30T09:44:16;3.72;;;3.53;;
67378;SDS011;54262;44.642;-0.974;2023-08-30T09:46:46;2.30;;;2.20;;
67378;SDS011;54262;44.642;-0.974;2023-08-30T09:49:17;3.92;;;2.17;;
67378;SDS011;54262;44.642;-0.974;2023-08-30T09:51:50;2.00;;;1.90;;
67378;SDS011;54262;44.642;-0.974;2023-08-30T09:54:18;2.38;;;2.28;;
67378;SDS011;54262;44.642;-0.974;2023-08-30T09:56:45;2.78;;;2.63;;
67378;SDS011;54262;44.642;-0.974;2023-08-30T09:59:12;2.15;;;2.05;;
67378;SDS011;54262;44.642;-0.974;2023-08-30T10:01:40;1.70;;;1.60;;
67378;SDS011;54262;44.642;-0.974;2023-08-30T10:04:09;3.25;;;3.05;;
67378;SDS011;54262;44.642;-0.974;2023-08-30T10:06:38;2.58;;;1.63;;
67378;SDS011;54262;44.642;-0.974;2023-08-30T10:09:05;3.25;;;3.00;;
67378;SDS011;54262;44.642;-0.974;2023-08-30T10:11:36;2.63;;;2.42;;
67378;SDS011;54262;44.642;-0.974;2023-08-30T10:14:04;2.80;;;2.50;;
67378;SDS011;54262;44.642;-0.974;2023-08-30T10:16:46;2.40;;;2.20;;
67378;SDS011;54262;44.642;-0.974;2023-08-30T10:19:28;2.53;;;2.42;;
67378;SDS011;54262;44.642;-0.974;2023-08-30T10:22:01;2.03;;;1.83;;
67378;SDS011;54262;44.642;-0.974;2023-08-30T10:24:41;1.10;;;1.00;;
67378;SDS011;54262;44.642;-0.974;2023-08-30T10:27:11;1.23;;;1.13;;
67378;SDS011;54262;44.642;-0.974;2023-08-30T10:29:39;2.22;;;1.30;;
67378;SDS011;54262;44.642;-0.974;2023-08-30T10:32:07;2.35;;;2.15;;
67378;SDS011;54262;44.642;-0.974;2023-08-30T10:34:33;0.98;;;0.85;;
67378;SDS011;54262;44.642;-0.974;2023-08-30T10:37:00;0.82;;;0.82;;
67378;SDS011;54262;44.642;-0.974;2023-08-30T10:39:35;1.48;;;1.40;;
67378;SDS011;54262;44.642;-0.974;2023-08-30T10:52:24;1.90;;;1.80;;
67378;SDS011;54262;44.642;-0.974;2023-08-30T10:54:51;1.27;;;1.20;;
67378;SDS011;54262;44.642;-0.974;2023-08-30T11:02:27;1.50;;;1.40;;
67378;SDS011;54262;44.642;-0.974;2023-08-30T11:04:53;1.55;;;0.90;;
67378;SDS011;54262;44.642;-0.974;2023-08-30T11:07:19;1.33;;;1.23;;
67378;SDS011;54262;44.642;-0.974;2023-08-30T11:09:46;1.60;;;1.50;;
67378;SDS011;54262;44.642;-0.974;2023-08-30T11:12:12;1.88;;;1.40;;
67378;SDS011;54262;44.642;-0.974;2023-08-30T11:14:40;1.27;;;1.17;;
67378;SDS011;54262;44.642;-0.974;2023-08-30T11:17:11;0.80;;;0.80;;
67378;SDS011;54262;44.642;-0.974;2023-08-30T11:19:36;2.38;;;1.38;;
67378;SDS011;54262;44.642;-0.974;2023-08-30T11:22:02;1.30;;;1.15;;
67378;SDS011;54262;44.642;-0.974;2023-08-30T11:24:28;1.50;;;1.15;;
67378;SDS011;54262;44.642;-0.974;2023-08-30T11:26:54;4.53;;;1.27;;
67378;SDS011;54262;44.642;-0.974;2023-08-30T11:29:20;1.25;;;1.15;;
67378;SDS011;54262;44.642;-0.974;2023-08-30T11:31:45;1.48;;;1.38;;
67378;SDS011;54262;44.642;-0.974;2023-08-30T11:34:12;1.10;;;1.00;;
67378;SDS011;54262;44.642;-0.974;2023-08-30T11:36:40;1.50;;;1.40;;
67378;SDS011;54262;44.642;-0.974;2023-08-30T11:39:06;1.00;;;1.00;;
67378;SDS011;54262;44.642;-0.974;2023-08-30T11:41:32;1.42;;;1.38;;
67378;SDS011;54262;44.642;-0.974;2023-08-30T11:43:58;1.77;;;1.67;;
67378;SDS011;54262;44.642;-0.974;2023-08-30T11:46:24;1.05;;;0.95;;
67378;SDS011;54262;44.642;-0.974;2023-08-30T11:54:03;1.00;;;0.90;;
67378;SDS011;54262;44.642;-0.974;2023-08-30T11:56:29;4.50;;;1.52;;
67378;SDS011;54262;44.642;-0.974;2023-08-30T11:58:55;1.70;;;1.60;;
67378;SDS011;54262;44.642;-0.974;2023-08-30T12:01:21;1.77;;;1.60;;
67378;SDS011;54262;44.642;-0.974;2023-08-30T12:03:47;1.65;;;1.50;;
67378;SDS011;54262;44.642;-0.974;2023-08-30T12:06:15;1.38;;;1.30;;
67378;SDS011;54262;44.642;-0.974;2023-08-30T12:08:41;1.73;;;1.58;;
67378;SDS011;54262;44.642;-0.974;2023-08-30T12:11:20;1.70;;;1.60;;
67378;SDS011;54262;44.642;-0.974;2023-08-30T12:13:46;2.13;;;2.03;;
67378;SDS011;54262;44.642;-0.974;2023-08-30T12:16:18;2.20;;;1.40;;
67378;SDS011;54262;44.642;-0.974;2023-08-30T12:18:46;1.70;;;1.60;;
67378;SDS011;54262;44.642;-0.974;2023-08-30T12:21:13;1.13;;;1.13;;
67378;SDS011;54262;44.642;-0.974;2023-08-30T12:23:39;2.08;;;1.60;;
67378;SDS011;54262;44.642;-0.974;2023-08-30T12:26:11;1.70;;;1.60;;
67378;SDS011;54262;44.642;-0.974;2023-08-30T12:28:38;1.45;;;1.35;;
67378;SDS011;54262;44.642;-0.974;2023-08-30T12:31:05;2.85;;;1.23;;
67378;SDS011;54262;44.642;-0.974;2023-08-30T12:33:32;1.38;;;1.27;;
67378;SDS011;54262;44.642;-0.974;2023-08-30T12:35:59;1.25;;;1.15;;
67378;SDS011;54262;44.642;-0.974;2023-08-30T12:38:25;3.15;;;1.40;;
67378;SDS011;54262;44.642;-0.974;2023-08-30T12:40:52;1.50;;;1.40;;
67378;SDS011;54262;44.642;-0.974;2023-08-30T12:43:19;1.40;;;1.30;;
67378;SDS011;54262;44.642;-0.974;2023-08-30T12:45:45;1.30;;;1.20;;
67378;SDS011;54262;44.642;-0.974;2023-08-30T12:48:12;1.15;;;1.13;;
67378;SDS011;54262;44.642;-0.974;2023-08-30T12:50:42;1.13;;;1.13;;
67378;SDS011;54262;44.642;-0.974;2023-08-30T12:53:09;1.40;;;1.30;;
67378;SDS011;54262;44.642;-0.974;2023-08-30T12:55:35;0.77;;;0.77;;
67378;SDS011;54262;44.642;-0.974;2023-08-30T12:58:01;1.63;;;0.77;;
67378;SDS011;54262;44.642;-0.974;2023-08-30T13:00:28;0.88;;;0.80;;
67378;SDS011;54262;44.642;-0.974;2023-08-30T13:02:53;0.32;;;0.20;;
67378;SDS011;54262;44.642;-0.974;2023-08-30T13:05:19;0.98;;;0.50;;
67378;SDS011;54262;44.642;-0.974;2023-08-30T13:07:46;1.02;;;0.85;;
67378;SDS011;54262;44.642;-0.974;2023-08-30T13:10:12;1.35;;;1.25;;
67378;SDS011;54262;44.642;-0.974;2023-08-30T13:12:37;0.80;;;0.40;;
67378;SDS011;54262;44.642;-0.974;2023-08-30T13:15:04;1.70;;;1.60;;
67378;SDS011;54262;44.642;-0.974;2023-08-30T13:17:32;0.95;;;0.30;;
67378;SDS011;54262;44.642;-0.974;2023-08-30T13:20:00;1.17;;;1.00;;
67378;SDS011;54262;44.642;-0.974;2023-08-30T13:22:27;0.65;;;0.63;;
67378;SDS011;54262;44.642;-0.974;2023-08-30T13:24:52;1.20;;;1.10;;
67378;SDS011;54262;44.642;-0.974;2023-08-30T13:27:19;0.95;;;0.80;;
67378;SDS011;54262;44.642;-0.974;2023-08-30T13:29:45;1.05;;;0.45;;
67378;SDS011;54262;44.642;-0.974;2023-08-30T13:32:10;1.10;;;1.10;;
67378;SDS011;54262;44.642;-0.974;2023-08-30T13:34:36;1.15;;;0.90;;
67378;SDS011;54262;44.642;-0.974;2023-08-30T13:37:02;1.27;;;1.17;;
67378;SDS011;54262;44.642;-0.974;2023-08-30T13:39:28;3.90;;;0.85;;
67378;SDS011;54262;44.642;-0.974;2023-08-30T13:41:54;0.77;;;0.55;;
67378;SDS011;54262;44.642;-0.974;2023-08-30T13:44:20;0.93;;;0.82;;
67378;SDS011;54262;44.642;-0.974;2023-08-30T13:46:45;0.90;;;0.90;;
67378;SDS011;54262;44.642;-0.974;2023-08-30T13:49:14;0.70;;;0.68;;
67378;SDS011;54262;44.642;-0.974;2023-08-30T13:51:40;1.40;;;0.52;;
67378;SDS011;54262;44.642;-0.974;2023-08-30T13:54:06;1.10;;;0.75;;
67378;SDS011;54262;44.642;-0.974;2023-08-30T13:56:32;1.00;;;0.82;;
67378;SDS011;54262;44.642;-0.974;2023-08-30T13:58:58;1.63;;;0.70;;
67378;SDS011;54262;44.642;-0.974;2023-08-30T14:01:23;0.80;;;0.60;;
67378;SDS011;54262;44.642;-0.974;2023-08-30T14:03:49;1.63;;;0.82;;
67378;SDS011;54262;44.642;-0.974;2023-08-30T14:06:15;0.98;;;0.80;;
67378;SDS011;54262;44.642;-0.974;2023-08-30T14:08:40;1.38;;;0.90;;
67378;SDS011;54262;44.642;-0.974;2023-08-30T14:11:06;1.17;;;0.98;;
67378;SDS011;54262;44.642;-0.974;2023-08-30T14:13:32;1.63;;;0.60;;
67378;SDS011;54262;44.642;-0.974;2023-08-30T14:16:04;1.40;;;0.75;;
67378;SDS011;54262;44.642;-0.974;2023-08-30T14:18:32;1.80;;;1.10;;
67378;SDS011;54262;44.642;-0.974;2023-08-30T14:21:05;1.30;;;0.90;;
67378;SDS011;54262;44.642;-0.974;2023-08-30T14:23:36;3.33;;;1.00;;
67378;SDS011;54262;44.642;-0.974;2023-08-30T14:26:02;4.20;;;1.13;;
67378;SDS011;54262;44.642;-0.974;2023-08-30T14:28:39;1.27;;;1.17;;
67378;SDS011;54262;44.642;-0.974;2023-08-30T14:31:08;1.88;;;0.82;;
67378;SDS011;54262;44.642;-0.974;2023-08-30T14:33:35;5.78;;;1.20;;
67378;SDS011;54262;44.642;-0.974;2023-08-30T14:36:01;2.10;;;0.70;;
67378;SDS011;54262;44.642;-0.974;2023-08-30T14:38:30;2.35;;;0.93;;
67378;SDS011;54262;44.642;-0.974;2023-08-30T14:43:22;1.13;;;0.60;;
67378;SDS011;54262;44.642;-0.974;2023-08-30T14:45:48;1.45;;;0.80;;
67378;SDS011;54262;44.642;-0.974;2023-08-30T14:48:13;2.20;;;0.82;;
67378;SDS011;54262;44.642;-0.974;2023-08-30T14:50:39;1.17;;;0.80;;
67378;SDS011;54262;44.642;-0.974;2023-08-30T14:53:05;3.47;;;1.83;;
67378;SDS011;54262;44.642;-0.974;2023-08-30T14:55:31;1.55;;;0.95;;
67378;SDS011;54262;44.642;-0.974;2023-08-30T14:57:57;1.38;;;1.08;;
67378;SDS011;54262;44.642;-0.974;2023-08-30T15:00:23;3.13;;;1.13;;